createdAt,value
2023-05-09T00:02:50.238Z,3.20
2023-05-09T00:05:52.328Z,2.90
2023-05-09T00:08:55.112Z,3.38
2023-05-09T00:11:57.324Z,2.92
2023-05-09T00:14:59.484Z,3.10
2023-05-09T00:18:01.478Z,3.10
2023-05-09T00:21:04.415Z,2.80
2023-05-09T00:24:09.263Z,2.80
2023-05-09T00:27:11.415Z,3.17
2023-05-09T00:30:13.504Z,2.95
2023-05-09T00:33:15.719Z,2.63
2023-05-09T00:36:22.131Z,3.40
2023-05-09T00:39:24.233Z,3.20
2023-05-09T00:42:26.564Z,2.92
2023-05-09T00:45:28.682Z,2.92
2023-05-09T00:48:31.012Z,3.67
2023-05-09T00:51:33.494Z,3.10
2023-05-09T00:54:36.069Z,3.00
2023-05-09T00:57:37.977Z,3.22
2023-05-09T01:00:41.084Z,2.85
2023-05-09T01:03:43.697Z,3.17
2023-05-09T01:07:11.936Z,3.73
2023-05-09T01:10:32.102Z,3.25
2023-05-09T01:13:52.513Z,3.72
2023-05-09T01:17:02.932Z,3.42
2023-05-09T01:20:47.088Z,3.27
2023-05-09T01:24:23.050Z,3.17
2023-05-09T01:28:22.485Z,3.30
2023-05-09T01:31:25.892Z,3.00
2023-05-09T01:34:30.815Z,3.13
2023-05-09T01:37:35.664Z,4.00
2023-05-09T01:40:40.788Z,3.70
2023-05-09T01:43:45.877Z,3.03
2023-05-09T01:46:49.180Z,3.35
2023-05-09T01:49:53.070Z,3.97
2023-05-09T01:52:58.726Z,3.70
2023-05-09T01:56:02.179Z,3.17
2023-05-09T01:59:06.921Z,3.63
2023-05-09T02:02:09.925Z,3.80
2023-05-09T02:05:13.461Z,3.75
2023-05-09T02:08:16.954Z,3.57
2023-05-09T02:11:19.043Z,3.63
2023-05-09T02:14:21.347Z,3.80
2023-05-09T02:17:24.214Z,3.40
2023-05-09T02:20:26.256Z,3.92
2023-05-09T02:23:28.562Z,3.67
2023-05-09T02:26:31.265Z,4.20
2023-05-09T02:29:40.556Z,3.60
2023-05-09T02:32:45.925Z,3.50
2023-05-09T02:35:48.986Z,3.83
2023-05-09T02:38:51.650Z,3.80
2023-05-09T02:41:53.683Z,4.10
2023-05-09T02:44:56.263Z,4.05
2023-05-09T02:47:58.372Z,3.90
2023-05-09T02:51:00.399Z,4.18
2023-05-09T02:54:02.460Z,3.70
2023-05-09T02:57:04.698Z,4.37
2023-05-09T03:00:10.031Z,3.53
2023-05-09T03:03:12.139Z,3.70
2023-05-09T03:06:14.513Z,3.45
2023-05-09T03:09:16.765Z,4.20
2023-05-09T03:12:18.740Z,4.47
2023-05-09T03:15:21.424Z,4.32
2023-05-09T03:18:23.512Z,4.57
2023-05-09T03:21:25.918Z,4.57
2023-05-09T03:24:31.012Z,4.17
2023-05-09T03:27:32.992Z,4.57
2023-05-09T03:30:35.277Z,4.15
2023-05-09T03:33:37.244Z,3.67
2023-05-09T03:36:39.384Z,4.00
2023-05-09T03:39:41.259Z,3.93
2023-05-09T03:42:43.248Z,4.20
2023-05-09T03:45:45.654Z,3.95
2023-05-09T03:48:47.600Z,4.22
2023-05-09T03:51:49.650Z,3.83
2023-05-09T03:54:51.950Z,4.37
2023-05-09T03:57:54.415Z,3.93
2023-05-09T04:00:56.507Z,3.92
2023-05-09T04:03:58.690Z,4.25
2023-05-09T04:07:00.913Z,4.85
2023-05-09T04:10:02.816Z,4.70
2023-05-09T04:13:05.171Z,4.23
2023-05-09T04:16:07.754Z,4.15
2023-05-09T04:19:09.945Z,4.13
2023-05-09T04:22:11.883Z,3.85
2023-05-09T04:25:16.121Z,4.17
2023-05-09T04:28:18.483Z,4.17
2023-05-09T04:31:20.644Z,3.58
2023-05-09T04:34:22.828Z,3.95
2023-05-09T04:37:24.871Z,4.70
2023-05-09T04:40:27.163Z,4.00
2023-05-09T04:43:29.951Z,3.73
2023-05-09T04:46:32.138Z,4.00
2023-05-09T04:49:34.030Z,4.10
2023-05-09T04:52:36.120Z,4.45
2023-05-09T04:55:38.082Z,5.03
2023-05-09T04:58:40.793Z,4.40
2023-05-09T05:01:43.995Z,4.03
2023-05-09T05:04:46.074Z,4.38
2023-05-09T05:07:48.438Z,4.35
2023-05-09T05:10:51.335Z,4.90
2023-05-09T05:13:53.361Z,3.77
2023-05-09T05:17:01.718Z,4.20
2023-05-09T05:20:06.704Z,4.07
2023-05-09T05:23:09.816Z,4.32
2023-05-09T05:26:15.081Z,4.23
2023-05-09T05:29:17.968Z,4.07
2023-05-09T05:32:20.075Z,4.07
2023-05-09T05:35:23.524Z,4.43
2023-05-09T05:38:25.721Z,4.20
2023-05-09T05:41:28.061Z,4.30
2023-05-09T05:44:30.086Z,4.30
2023-05-09T05:47:36.814Z,3.30
2023-05-09T05:50:39.564Z,3.88
2023-05-09T05:53:53.243Z,4.03
2023-05-09T05:56:57.518Z,3.30
2023-05-09T05:59:59.952Z,3.20
2023-05-09T06:03:06.283Z,3.45
2023-05-09T06:07:33.727Z,3.30
2023-05-09T06:11:06.448Z,3.28
2023-05-09T06:14:17.911Z,3.07
2023-05-09T06:17:20.754Z,3.20
2023-05-09T06:20:23.507Z,3.20
2023-05-09T06:23:51.031Z,2.85
2023-05-09T06:27:18.394Z,3.08
2023-05-09T06:31:27.601Z,2.70
2023-05-09T06:34:36.959Z,2.53
2023-05-09T06:38:41.061Z,1.60
2023-05-09T06:41:52.091Z,2.20
2023-05-09T06:44:54.694Z,1.40
2023-05-09T06:48:08.751Z,1.90
2023-05-09T06:51:14.926Z,1.30
2023-05-09T06:54:36.263Z,1.50
2023-05-09T06:57:41.988Z,1.50
2023-05-09T07:00:44.798Z,1.40
2023-05-09T07:04:01.017Z,1.70
2023-05-09T07:10:43.275Z,1.30
2023-05-09T07:13:46.745Z,2.30
2023-05-09T07:16:49.882Z,1.67
2023-05-09T07:19:52.168Z,1.67
2023-05-09T07:22:54.478Z,1.70
2023-05-09T07:26:52.456Z,1.65
2023-05-09T07:29:58.149Z,1.30
2023-05-09T07:33:02.643Z,1.95
2023-05-09T07:36:05.330Z,1.40
2023-05-09T07:39:11.086Z,1.50
2023-05-09T07:42:24.173Z,1.42
2023-05-09T07:45:27.033Z,1.30
2023-05-09T07:48:32.307Z,1.67
2023-05-09T07:51:38.326Z,0.90
2023-05-09T07:54:41.564Z,1.20
2023-05-09T07:57:46.725Z,1.40
2023-05-09T08:00:50.198Z,1.05
2023-05-09T08:04:22.148Z,1.00
2023-05-09T08:07:35.327Z,1.23
2023-05-09T08:10:53.036Z,1.60
2023-05-09T08:14:45.882Z,1.08
2023-05-09T08:18:34.480Z,0.98
2023-05-09T08:21:43.178Z,1.00
2023-05-09T08:24:49.662Z,1.20
2023-05-09T08:27:56.852Z,1.37
2023-05-09T08:31:15.156Z,1.00
2023-05-09T08:39:02.149Z,1.10
2023-05-09T08:42:35.764Z,0.93
2023-05-09T08:46:38.104Z,0.90
2023-05-09T08:54:02.134Z,1.00
2023-05-09T08:57:16.581Z,0.70
2023-05-09T09:00:33.626Z,0.90
2023-05-09T09:07:54.158Z,1.20
2023-05-09T09:11:20.341Z,0.80
2023-05-09T09:14:32.481Z,0.88
2023-05-09T09:17:41.804Z,0.90
2023-05-09T09:21:00.365Z,1.00
2023-05-09T09:24:05.056Z,1.33
2023-05-09T09:27:07.835Z,0.70
2023-05-09T09:33:32.303Z,0.67
2023-05-09T09:36:38.064Z,1.10
2023-05-09T09:39:55.204Z,0.80
2023-05-09T09:43:00.689Z,1.00
2023-05-09T09:46:20.340Z,0.65
2023-05-09T09:49:30.150Z,0.63
2023-05-09T09:52:33.759Z,0.90
2023-05-09T10:08:55.689Z,0.90
2023-05-09T10:12:33.275Z,0.70
2023-05-09T10:16:13.041Z,1.02
2023-05-09T10:23:08.839Z,1.02
2023-05-09T10:26:34.909Z,1.10
2023-05-09T10:29:58.993Z,1.60
2023-05-09T10:33:10.030Z,1.02
2023-05-09T10:36:15.644Z,0.80
2023-05-09T10:39:21.204Z,0.90
2023-05-09T10:42:28.547Z,0.60
2023-05-09T10:45:30.802Z,0.90
2023-05-09T10:48:34.331Z,1.17
2023-05-09T10:51:39.588Z,1.08
2023-05-09T10:54:44.502Z,1.30
2023-05-09T10:58:18.469Z,0.90
2023-05-09T11:01:40.149Z,1.00
2023-05-09T11:05:05.550Z,1.08
2023-05-09T11:08:23.522Z,1.00
2023-05-09T11:11:36.290Z,0.57
2023-05-09T11:14:42.699Z,1.00
2023-05-09T11:18:06.484Z,1.00
2023-05-09T11:21:10.121Z,0.95
2023-05-09T11:24:19.536Z,1.23
2023-05-09T11:27:27.533Z,1.00
2023-05-09T11:30:44.066Z,0.90
2023-05-09T11:37:21.924Z,0.93
2023-05-09T11:40:40.626Z,1.10
2023-05-09T11:43:53.510Z,1.00
2023-05-09T11:47:35.155Z,1.27
2023-05-09T11:50:55.722Z,1.33
2023-05-09T11:57:35.819Z,1.02
2023-05-09T12:00:46.797Z,1.00
2023-05-09T12:03:59.630Z,1.10
2023-05-09T12:07:03.336Z,0.90
2023-05-09T12:10:14.511Z,1.00
2023-05-09T12:13:35.378Z,1.45
2023-05-09T12:17:08.710Z,0.95
2023-05-09T12:21:27.346Z,1.23
2023-05-09T12:24:44.813Z,1.13
2023-05-09T12:27:54.966Z,1.20
2023-05-09T12:31:13.631Z,0.75
2023-05-09T12:34:25.526Z,0.80
2023-05-09T12:37:30.585Z,1.10
2023-05-09T12:40:34.304Z,1.00
2023-05-09T12:43:43.299Z,1.00
2023-05-09T12:46:56.291Z,1.30
2023-05-09T12:50:04.792Z,1.45
2023-05-09T12:53:09.420Z,0.90
2023-05-09T12:56:31.067Z,1.10
2023-05-09T12:59:34.325Z,1.45
2023-05-09T13:02:44.958Z,1.00
2023-05-09T13:06:00.798Z,1.10
2023-05-09T13:09:06.537Z,1.10
2023-05-09T13:12:22.333Z,1.10
2023-05-09T13:15:27.066Z,0.93
2023-05-09T13:19:02.345Z,0.90
2023-05-09T13:22:29.638Z,0.98
2023-05-09T13:25:55.752Z,0.90
2023-05-09T13:29:15.986Z,1.00
2023-05-09T13:32:21.028Z,1.55
2023-05-09T13:35:43.517Z,1.10
2023-05-09T13:38:54.347Z,0.93
2023-05-09T13:42:02.668Z,1.03
2023-05-09T13:45:10.438Z,0.70
2023-05-09T13:48:14.279Z,0.95
2023-05-09T13:51:19.765Z,1.17
2023-05-09T13:54:27.333Z,1.00
2023-05-09T13:57:46.681Z,1.60
2023-05-09T14:01:14.994Z,0.80
2023-05-09T14:04:27.428Z,0.95
2023-05-09T14:07:35.933Z,1.20
2023-05-09T14:10:48.822Z,1.00
2023-05-09T14:13:55.586Z,0.87
2023-05-09T14:17:09.405Z,1.10
2023-05-09T14:20:21.361Z,1.15
2023-05-09T14:23:30.184Z,1.08
2023-05-09T14:26:55.149Z,0.85
2023-05-09T14:30:26.375Z,1.10
2023-05-09T14:33:52.989Z,0.90
2023-05-09T14:37:02.594Z,1.10
2023-05-09T14:40:29.429Z,0.88
2023-05-09T14:44:04.225Z,0.95
2023-05-09T14:47:21.219Z,1.00
2023-05-09T14:58:02.134Z,0.85
2023-05-09T15:01:14.882Z,0.98
2023-05-09T15:04:33.475Z,1.00
2023-05-09T15:07:46.264Z,0.83
2023-05-09T15:11:09.694Z,1.00
2023-05-09T15:15:41.592Z,0.90
2023-05-09T15:30:22.271Z,1.02
2023-05-09T15:33:38.549Z,0.70
2023-05-09T15:36:57.989Z,0.80
2023-05-09T15:40:07.110Z,0.90
2023-05-09T15:43:29.020Z,0.90
2023-05-09T15:46:38.067Z,0.90
2023-05-09T15:49:44.066Z,0.90
2023-05-09T15:52:57.475Z,1.10
2023-05-09T15:56:10.176Z,1.10
2023-05-09T15:59:19.692Z,0.70
2023-05-09T16:02:27.277Z,1.00
2023-05-09T16:06:03.421Z,1.08
2023-05-09T16:09:07.287Z,0.88
2023-05-09T16:12:28.184Z,0.77
2023-05-09T16:15:43.566Z,1.00
2023-05-09T16:18:55.812Z,1.92
2023-05-09T16:22:08.404Z,0.90
2023-05-09T16:25:20.638Z,0.70
2023-05-09T16:28:46.685Z,1.00
2023-05-09T16:32:03.892Z,0.87
2023-05-09T16:35:18.119Z,0.93
2023-05-09T16:38:27.016Z,0.98
2023-05-09T16:41:39.127Z,0.77
2023-05-09T16:45:03.251Z,1.13
2023-05-09T16:48:33.544Z,1.30
2023-05-09T16:52:08.796Z,1.13
2023-05-09T16:55:49.194Z,1.25
2023-05-09T16:59:31.757Z,1.50
2023-05-09T17:06:57.974Z,1.90
2023-05-09T17:10:25.795Z,1.95
2023-05-09T17:18:37.618Z,1.38
2023-05-09T17:34:05.262Z,1.50
2023-05-09T17:36:19.643Z,1.27
2023-05-09T17:40:59.928Z,1.02
2023-05-09T17:45:27.355Z,1.00
2023-05-09T17:49:24.357Z,0.97
2023-05-09T18:13:02.124Z,1.70
2023-05-09T18:16:11.469Z,1.85
2023-05-09T18:19:27.983Z,1.50
2023-05-09T18:23:02.606Z,2.17
2023-05-09T18:26:27.643Z,1.87
2023-05-09T18:29:41.068Z,1.55
2023-05-09T18:33:02.990Z,1.63
2023-05-09T18:36:12.190Z,1.58
2023-05-09T18:39:22.608Z,1.70
2023-05-09T18:42:27.749Z,1.70
2023-05-09T18:45:37.582Z,1.70
2023-05-09T18:48:45.290Z,1.58
2023-05-09T18:51:53.249Z,1.70
2023-05-09T18:55:28.360Z,1.87
2023-05-09T18:58:45.647Z,1.80
2023-05-09T19:01:49.129Z,1.90
2023-05-09T19:04:56.035Z,2.00
2023-05-09T19:08:00.208Z,1.80
2023-05-09T19:11:12.881Z,1.70
2023-05-09T19:14:25.375Z,1.67
2023-05-09T19:17:35.274Z,1.88
2023-05-09T19:20:45.357Z,1.75
2023-05-09T19:23:52.945Z,1.60
2023-05-09T19:27:04.806Z,1.40
2023-05-09T19:30:30.998Z,1.90
2023-05-09T19:33:42.962Z,1.95
2023-05-09T19:36:47.274Z,1.88
2023-05-09T19:39:54.142Z,2.00
2023-05-09T19:43:04.877Z,2.10
2023-05-09T19:46:11.163Z,2.00
2023-05-09T19:49:17.952Z,1.80
2023-05-09T19:52:25.782Z,1.80
2023-05-09T19:55:36.734Z,1.95
2023-05-09T19:58:50.248Z,2.30
2023-05-09T20:01:53.903Z,2.07
2023-05-09T20:04:57.511Z,2.63
2023-05-09T20:08:06.566Z,2.30
2023-05-09T20:11:19.839Z,2.10
2023-05-09T20:14:23.945Z,2.10
2023-05-09T20:17:27.522Z,1.70
2023-05-09T20:20:33.049Z,2.35
2023-05-09T20:23:41.952Z,1.92
2023-05-09T20:26:55.972Z,2.00
2023-05-09T20:30:08.058Z,1.87
2023-05-09T20:33:12.569Z,1.73
2023-05-09T20:36:18.810Z,1.90
2023-05-09T20:39:25.576Z,1.73
2023-05-09T20:42:34.171Z,1.92
2023-05-09T20:45:39.058Z,2.00
2023-05-09T20:48:48.503Z,1.90
2023-05-09T20:51:57.923Z,1.70
2023-05-09T20:55:07.767Z,1.83
2023-05-09T20:58:18.612Z,2.17
2023-05-09T21:01:44.300Z,1.47
2023-05-09T21:05:04.981Z,1.83
2023-05-09T21:08:13.931Z,2.00
2023-05-09T21:11:57.898Z,1.75
2023-05-09T21:15:33.894Z,1.63
2023-05-09T21:18:56.564Z,1.60
2023-05-09T21:22:52.140Z,1.63
2023-05-09T21:26:12.991Z,1.85
2023-05-09T21:33:51.882Z,1.60
2023-05-09T21:37:09.430Z,1.50
2023-05-09T21:40:52.827Z,1.33
2023-05-09T21:44:20.396Z,1.50
2023-05-09T21:47:26.701Z,1.67
2023-05-09T21:50:35.042Z,1.92
2023-05-09T21:53:43.971Z,1.43
2023-05-09T21:56:51.080Z,1.70
2023-05-09T22:00:21.481Z,1.60
2023-05-09T22:03:32.964Z,1.80
2023-05-09T22:06:40.576Z,2.38
2023-05-09T22:09:54.496Z,2.23
2023-05-09T22:13:03.080Z,2.33
2023-05-09T22:16:12.586Z,2.00
2023-05-09T22:19:30.528Z,1.80
2023-05-09T22:22:42.672Z,2.33
2023-05-09T22:25:51.426Z,1.93
2023-05-09T22:29:12.203Z,1.70
2023-05-09T22:32:38.325Z,1.90
2023-05-09T22:35:52.526Z,1.83
2023-05-09T22:39:26.041Z,1.88
2023-05-09T22:42:39.404Z,1.47
2023-05-09T22:46:06.241Z,1.80
2023-05-09T22:49:36.415Z,2.20
2023-05-09T22:52:46.639Z,1.65
2023-05-09T22:56:45.404Z,2.20
2023-05-09T23:00:00.242Z,2.10
2023-05-09T23:03:27.629Z,2.10
2023-05-09T23:07:00.107Z,1.65
2023-05-09T23:10:30.302Z,2.55
2023-05-09T23:13:47.805Z,2.40
2023-05-09T23:17:02.642Z,2.03
2023-05-09T23:20:09.820Z,2.07
2023-05-09T23:23:38.069Z,2.10
2023-05-09T23:27:12.354Z,2.05
2023-05-09T23:30:35.496Z,2.20
2023-05-09T23:34:02.826Z,2.10
2023-05-09T23:41:33.464Z,2.47
2023-05-09T23:45:23.908Z,2.65
2023-05-09T23:49:30.769Z,2.97
2023-05-09T23:53:00.620Z,2.70
2023-05-09T23:56:37.199Z,2.40
